Time;durP1;ratioP1;P1;durP2;ratioP2;P2;SDS_P1;SDS_P2;PMS_P1;PMS_P2;Temp;Humidity;BMP_temperature;BMP_pressure;BME280_temperature;BME280_humidity;BME280_pressure;Samples;Min_cycle;Max_cycle;Signal;HPM_P1;HPM_P2
2022/10/08 00:00:58;;;;;;;9.38;2.60;;;12.40;99.90;;;;;;4954056;29;20053;-77
2022/10/08 00:03:26;;;;;;;9.30;2.58;;;12.30;99.90;;;;;;4953865;29;20498;-77
2022/10/08 00:06:09;;;;;;;7.25;2.53;;;12.30;99.90;;;;;;4914236;29;20039;-77
2022/10/08 00:08:37;;;;;;;10.77;3.25;;;12.20;99.90;;;;;;4950293;28;20106;-77
2022/10/08 00:11:06;;;;;;;9.65;2.92;;;12.10;99.90;;;;;;4934878;29;20410;-78
2022/10/08 00:13:40;;;;;;;8.95;3.20;;;12.00;99.90;;;;;;4933572;29;20075;-78
2022/10/08 00:16:11;;;;;;;8.30;2.85;;;12.00;99.90;;;;;;4933846;29;20039;-77
2022/10/08 00:18:38;;;;;;;8.77;3.05;;;12.00;99.90;;;;;;4931524;29;20054;-77
2022/10/08 00:21:14;;;;;;;10.20;3.22;;;11.90;99.90;;;;;;4934110;29;20048;-77
2022/10/08 00:23:40;;;;;;;6.32;3.35;;;11.90;99.90;;;;;;4933558;29;20214;-77
2022/10/08 00:26:06;;;;;;;8.27;3.35;;;11.90;99.90;;;;;;4934905;29;20071;-77
2022/10/08 00:28:37;;;;;;;12.25;3.58;;;11.90;99.90;;;;;;4934220;29;20434;-77
2022/10/08 00:31:14;;;;;;;7.60;2.97;;;11.80;99.90;;;;;;4932509;29;20498;-77
2022/10/08 00:33:40;;;;;;;8.50;3.28;;;11.80;99.90;;;;;;4932691;29;20043;-77
2022/10/08 00:36:09;;;;;;;10.60;3.30;;;11.80;99.90;;;;;;4926495;29;20039;-77
2022/10/08 00:38:35;;;;;;;12.00;4.55;;;11.80;99.90;;;;;;4917483;29;20103;-77
2022/10/08 00:41:01;;;;;;;9.02;3.70;;;11.80;99.90;;;;;;4934035;29;20051;-77
2022/10/08 00:43:42;;;;;;;7.63;3.65;;;11.80;99.90;;;;;;4930302;29;20074;-76
2022/10/08 00:46:21;;;;;;;11.55;4.03;;;11.80;99.90;;;;;;4922435;29;20106;-77
2022/10/08 00:48:49;;;;;;;9.52;4.15;;;11.80;99.90;;;;;;4927245;29;20126;-77
2022/10/08 00:51:14;;;;;;;9.77;4.90;;;11.70;99.90;;;;;;4933976;29;20047;-77
2022/10/08 00:53:40;;;;;;;10.15;5.25;;;11.70;99.90;;;;;;4933029;29;20050;-77
2022/10/08 00:56:06;;;;;;;9.98;5.28;;;11.70;99.90;;;;;;4944086;29;20037;-77
2022/10/08 00:58:33;;;;;;;8.77;5.22;;;11.80;99.90;;;;;;4935841;29;20533;-77
2022/10/08 01:00:58;;;;;;;8.77;4.57;;;11.70;99.90;;;;;;4964864;28;20050;-78
2022/10/08 01:03:24;;;;;;;9.35;4.45;;;11.70;99.90;;;;;;4934112;29;20126;-78
2022/10/08 01:05:57;;;;;;;8.48;4.50;;;11.80;99.90;;;;;;4951694;28;20044;-77
2022/10/08 01:08:38;;;;;;;6.75;4.30;;;11.70;99.90;;;;;;4910662;29;20131;-77
2022/10/08 01:11:19;;;;;;;8.50;4.82;;;11.80;99.90;;;;;;4933439;29;20515;-77
2022/10/08 01:13:52;;;;;;;8.38;4.53;;;11.80;99.90;;;;;;4933605;29;20039;-77
2022/10/08 01:16:17;;;;;;;;;;;11.70;99.90;;;;;;4938001;29;20044;-77
2022/10/08 01:18:54;;;;;;;11.05;5.22;;;11.70;99.90;;;;;;4964124;28;20160;-77
2022/10/08 01:21:50;;;;;;;10.05;4.65;;;11.80;99.90;;;;;;4917692;29;20043;-76
2022/10/08 01:25:31;;;;;;;6.47;4.90;;;11.80;99.90;;;;;;4929400;29;20032;-77
2022/10/08 01:27:33;;;;;;;9.77;4.78;;;11.70;99.90;;;;;;4926392;29;20044;-78
2022/10/08 01:30:03;;;;;;;6.43;4.50;;;11.70;99.90;;;;;;4940838;29;20047;-77
2022/10/08 01:32:37;;;;;;;4.50;3.70;;;11.70;99.90;;;;;;4948770;29;20046;-78
2022/10/08 01:35:19;;;;;;;6.60;4.10;;;11.70;99.90;;;;;;4920819;29;20044;-77
2022/10/08 01:37:46;;;;;;;6.30;3.90;;;11.60;99.90;;;;;;4929449;29;20047;-77
2022/10/08 01:40:19;;;;;;;5.38;4.20;;;11.60;99.90;;;;;;4921164;29;20043;-77
2022/10/08 01:42:48;;;;;;;7.75;3.85;;;11.50;99.90;;;;;;4951236;28;20058;-77
2022/10/08 01:45:18;;;;;;;7.68;3.60;;;11.50;99.90;;;;;;4941958;29;20078;-77
2022/10/08 01:47:46;;;;;;;7.38;3.55;;;11.50;99.90;;;;;;4936701;29;20044;-77
2022/10/08 01:50:18;;;;;;;9.98;3.80;;;11.50;99.90;;;;;;4920848;29;20106;-76
2022/10/08 01:52:53;;;;;;;6.22;3.30;;;11.50;99.90;;;;;;4936868;29;20047;-77
2022/10/08 01:55:33;;;;;;;7.13;3.13;;;11.50;99.90;;;;;;4935644;29;20055;-77
2022/10/08 01:58:03;;;;;;;6.60;3.05;;;11.50;99.90;;;;;;4931331;29;20056;-77
2022/10/08 02:00:32;;;;;;;7.00;3.03;;;11.40;99.90;;;;;;4942416;29;20044;-77
2022/10/08 02:02:59;;;;;;;6.30;2.80;;;11.50;99.90;;;;;;4935808;29;20046;-77
2022/10/08 02:05:28;;;;;;;7.10;3.47;;;11.50;99.90;;;;;;4936659;29;20036;-77
2022/10/08 02:07:54;;;;;;;7.90;2.92;;;11.40;99.90;;;;;;4944697;29;20055;-77
2022/10/08 02:10:25;;;;;;;5.25;2.90;;;11.40;99.90;;;;;;4936703;29;20047;-77
2022/10/08 02:12:51;;;;;;;4.50;2.55;;;11.40;99.90;;;;;;4936542;29;20122;-77
2022/10/08 02:15:21;;;;;;;4.97;2.28;;;11.40;99.90;;;;;;4929271;29;20036;-77
2022/10/08 02:18:05;;;;;;;4.88;2.60;;;11.40;99.90;;;;;;4960943;28;20057;-76
2022/10/08 02:20:40;;;;;;;7.85;3.70;;;11.40;99.90;;;;;;4939611;29;20047;-76
2022/10/08 02:23:38;;;;;;;7.15;2.70;;;11.30;99.90;;;;;;4955791;29;20393;-77
2022/10/08 02:26:10;;;;;;;5.93;2.72;;;11.30;99.90;;;;;;4935660;29;20550;-77
2022/10/08 02:28:50;;;;;;;6.13;2.65;;;11.30;99.90;;;;;;4935450;29;20057;-77
2022/10/08 02:31:26;;;;;;;5.30;2.25;;;11.30;99.90;;;;;;4933276;29;20066;-77
2022/10/08 02:34:02;;;;;;;7.07;2.13;;;11.20;99.90;;;;;;4935033;29;20459;-77
2022/10/08 02:36:34;;;;;;;5.68;2.38;;;11.20;99.90;;;;;;4931183;29;20044;-77
2022/10/08 02:39:02;;;;;;;5.03;2.30;;;11.20;99.90;;;;;;4935816;29;20051;-76
2022/10/08 02:41:36;;;;;;;5.03;2.75;;;11.20;99.90;;;;;;4951902;29;20490;-76
2022/10/08 02:44:07;;;;;;;4.38;1.98;;;11.10;99.90;;;;;;4934649;29;20047;-77
2022/10/08 02:46:37;;;;;;;4.03;2.53;;;11.10;99.90;;;;;;4935683;29;20044;-77
2022/10/08 02:49:13;;;;;;;6.32;2.47;;;11.00;99.90;;;;;;4954856;29;20052;-77
2022/10/08 02:51:44;;;;;;;3.47;2.35;;;11.00;99.90;;;;;;4932708;29;20039;-77
2022/10/08 02:54:10;;;;;;;8.15;2.47;;;11.00;99.90;;;;;;4917864;29;20036;-77
2022/10/08 02:57:02;;;;;;;4.22;2.58;;;10.90;99.90;;;;;;4950939;28;20039;-77
2022/10/08 02:59:27;;;;;;;10.23;2.80;;;10.90;99.90;;;;;;4920542;29;20107;-77
2022/10/08 03:01:59;;;;;;;5.60;2.50;;;10.80;99.90;;;;;;4964035;28;20052;-76
2022/10/08 03:04:36;;;;;;;6.30;2.78;;;10.80;99.90;;;;;;4932735;29;20050;-77
2022/10/08 03:07:02;;;;;;;5.90;2.75;;;10.80;99.90;;;;;;4943016;29;20376;-77
2022/10/08 03:09:32;;;;;;;8.13;2.70;;;10.80;99.90;;;;;;4936079;29;20570;-77
2022/10/08 03:11:59;;;;;;;4.32;2.75;;;10.70;99.90;;;;;;4934994;29;20043;-77
2022/10/08 03:14:26;;;;;;;8.90;3.10;;;10.70;99.90;;;;;;4932036;29;20044;-77
2022/10/08 03:16:53;;;;;;;9.95;3.90;;;10.70;99.90;;;;;;4935791;29;20099;-77
2022/10/08 03:19:18;;;;;;;9.13;3.08;;;10.70;99.90;;;;;;4929049;29;20091;-77
2022/10/08 03:21:47;;;;;;;10.05;3.50;;;10.70;99.90;;;;;;4943596;29;20035;-77
2022/10/08 03:24:14;;;;;;;7.32;3.10;;;10.70;99.90;;;;;;4934567;29;20079;-77
2022/10/08 03:26:39;;;;;;;11.52;3.38;;;10.60;99.90;;;;;;4943037;29;20070;-77
2022/10/08 03:29:06;;;;;;;8.52;3.63;;;10.60;99.90;;;;;;4930929;29;20079;-77
2022/10/08 03:31:31;;;;;;;7.45;2.97;;;10.60;99.90;;;;;;4928771;29;20043;-77
2022/10/08 03:33:57;;;;;;;6.97;3.20;;;10.60;99.90;;;;;;4933023;29;20095;-77
2022/10/08 03:36:24;;;;;;;6.65;2.95;;;10.60;99.90;;;;;;4938236;29;20043;-77
2022/10/08 03:38:49;;;;;;;9.40;2.97;;;10.60;99.90;;;;;;4951944;29;20130;-77
2022/10/08 03:41:16;;;;;;;8.07;3.15;;;10.60;99.90;;;;;;4953384;29;20091;-77
2022/10/08 03:43:42;;;;;;;6.75;3.65;;;10.60;99.90;;;;;;4935094;29;20067;-77
2022/10/08 03:46:10;;;;;;;6.53;3.78;;;10.60;99.90;;;;;;4937944;29;20047;-77
2022/10/08 03:48:37;;;;;;;9.45;3.90;;;10.50;99.90;;;;;;4935948;29;20095;-76
2022/10/08 03:51:10;;;;;;;8.95;3.70;;;10.50;99.90;;;;;;4934723;29;20657;-77
2022/10/08 03:53:37;;;;;;;7.28;3.88;;;10.60;99.90;;;;;;4941750;29;20450;-77
2022/10/08 03:56:05;;;;;;;4.78;3.70;;;10.50;99.90;;;;;;4945847;29;20043;-77
2022/10/08 03:58:31;;;;;;;9.00;4.25;;;10.50;99.90;;;;;;4937369;29;20039;-77
2022/10/08 04:01:09;;;;;;;9.77;4.40;;;10.50;99.90;;;;;;4933842;29;20044;-77
2022/10/08 04:03:35;;;;;;;8.85;4.20;;;10.50;99.90;;;;;;4929998;29;20082;-77
2022/10/08 04:06:01;;;;;;;13.35;4.90;;;10.50;99.90;;;;;;4928844;29;20059;-77
2022/10/08 04:08:27;;;;;;;8.25;4.80;;;10.50;99.90;;;;;;4935036;29;20557;-77
2022/10/08 04:10:53;;;;;;;11.85;4.85;;;10.50;99.90;;;;;;4933727;29;20490;-77
2022/10/08 04:13:19;;;;;;;7.47;4.20;;;10.50;99.90;;;;;;4938881;29;20039;-77
2022/10/08 04:15:49;;;;;;;13.77;4.80;;;10.50;99.90;;;;;;4936108;29;20103;-77
2022/10/08 04:18:16;;;;;;;15.77;6.35;;;10.60;99.90;;;;;;4930777;29;20056;-77
2022/10/08 04:20:42;;;;;;;9.05;5.03;;;10.60;99.90;;;;;;4934077;29;20032;-77
2022/10/08 04:23:09;;;;;;;12.02;4.72;;;10.60;99.90;;;;;;4930726;29;20062;-77
2022/10/08 04:25:35;;;;;;;17.95;5.85;;;10.70;99.90;;;;;;4958231;28;20380;-77
2022/10/08 04:28:04;;;;;;;12.18;4.78;;;10.70;99.90;;;;;;4933474;29;20173;-77
2022/10/08 04:30:31;;;;;;;14.50;5.63;;;10.80;99.90;;;;;;4933948;29;20044;-77
2022/10/08 04:32:57;;;;;;;10.20;4.07;;;10.80;99.90;;;;;;4931690;29;20055;-77
2022/10/08 04:35:23;;;;;;;11.52;5.10;;;10.80;99.90;;;;;;4929596;29;20050;-77
2022/10/08 04:37:49;;;;;;;9.18;4.30;;;10.90;99.90;;;;;;4933650;29;20048;-77
2022/10/08 04:40:14;;;;;;;12.15;4.60;;;10.90;99.90;;;;;;4933914;29;20146;-77
2022/10/08 04:42:40;;;;;;;9.68;4.45;;;10.90;99.90;;;;;;4933235;29;20542;-76
2022/10/08 04:45:06;;;;;;;17.25;4.45;;;10.80;99.90;;;;;;4921741;29;20036;-77
2022/10/08 04:47:31;;;;;;;14.45;4.47;;;10.80;99.90;;;;;;4923069;29;20547;-77
2022/10/08 04:49:57;;;;;;;9.07;4.85;;;10.80;99.90;;;;;;4922939;29;20040;-77
2022/10/08 04:52:23;;;;;;;11.90;4.57;;;10.70;99.90;;;;;;4933812;29;20051;-77
2022/10/08 04:54:48;;;;;;;14.85;4.32;;;10.70;99.90;;;;;;4933934;29;20052;-77
2022/10/08 04:57:14;;;;;;;11.73;4.60;;;10.70;99.90;;;;;;4940351;29;21681;-77
2022/10/08 04:59:39;;;;;;;8.85;4.35;;;10.70;99.90;;;;;;4949619;29;20044;-77
2022/10/08 05:02:05;;;;;;;12.13;4.60;;;10.70;99.90;;;;;;4898870;29;20051;-77
2022/10/08 05:04:30;;;;;;;8.32;4.25;;;10.70;99.90;;;;;;4928443;29;20038;-77
2022/10/08 05:06:56;;;;;;;7.32;4.18;;;10.70;99.90;;;;;;4936002;29;20472;-77
2022/10/08 05:09:22;;;;;;;9.73;4.32;;;10.70;99.90;;;;;;4928337;29;20067;-77
2022/10/08 05:11:49;;;;;;;9.75;4.75;;;10.70;99.90;;;;;;4933291;29;20086;-77
2022/10/08 05:14:15;;;;;;;6.43;3.80;;;10.70;99.90;;;;;;4925298;29;20056;-77
2022/10/08 05:16:40;;;;;;;12.25;4.30;;;10.60;99.90;;;;;;4933844;29;20058;-77
2022/10/08 05:19:06;;;;;;;8.40;4.25;;;10.60;99.90;;;;;;4927471;29;20096;-77
2022/10/08 05:21:32;;;;;;;8.30;3.97;;;10.50;99.90;;;;;;4933458;29;20122;-77
2022/10/08 05:24:06;;;;;;;11.55;5.20;;;10.50;99.90;;;;;;4932889;29;20447;-76
2022/10/08 05:26:35;;;;;;;13.57;4.68;;;10.50;99.90;;;;;;4952089;28;20039;-77
2022/10/08 05:29:00;;;;;;;24.52;4.63;;;10.40;99.90;;;;;;4917540;29;20051;-77
2022/10/08 05:31:28;;;;;;;12.95;5.03;;;10.40;99.90;;;;;;4914065;29;20051;-77
2022/10/08 05:33:53;;;;;;;9.93;4.47;;;10.40;99.90;;;;;;4932063;29;20392;-77
2022/10/08 05:36:22;;;;;;;12.93;4.82;;;10.30;99.90;;;;;;4924497;29;20050;-77
2022/10/08 05:38:48;;;;;;;23.58;5.25;;;10.30;99.90;;;;;;4932939;29;20079;-77
2022/10/08 05:41:22;;;;;;;15.15;5.30;;;10.30;99.90;;;;;;4949506;29;20427;-77
2022/10/08 05:43:49;;;;;;;8.15;4.10;;;10.20;99.90;;;;;;4915508;29;20527;-77
2022/10/08 05:46:15;;;;;;;10.27;4.93;;;10.20;99.90;;;;;;4932557;29;20071;-77
2022/10/08 05:48:41;;;;;;;10.07;4.75;;;10.20;99.90;;;;;;4931356;29;20043;-77
2022/10/08 05:51:15;;;;;;;10.00;4.65;;;10.10;99.90;;;;;;4924491;29;20048;-77
2022/10/08 05:53:43;;;;;;;9.77;4.07;;;10.10;99.90;;;;;;4928908;29;20039;-77
2022/10/08 05:56:11;;;;;;;10.00;5.00;;;10.10;99.90;;;;;;4916881;29;20553;-77
2022/10/08 05:58:38;;;;;;;19.63;5.53;;;10.10;99.90;;;;;;4932511;29;20091;-77
2022/10/08 06:01:29;;;;;;;13.15;4.97;;;10.10;99.90;;;;;;4935530;29;20035;-77
2022/10/08 06:04:00;;;;;;;15.93;6.07;;;10.00;99.90;;;;;;4944235;29;20043;-77
2022/10/08 06:06:25;;;;;;;18.80;6.45;;;10.10;99.90;;;;;;4954683;28;20071;-77
2022/10/08 06:08:57;;;;;;;15.70;6.28;;;10.10;99.90;;;;;;4925984;29;20043;-77
2022/10/08 06:11:22;;;;;;;18.42;6.75;;;10.10;99.90;;;;;;4932577;29;20039;-77
2022/10/08 06:13:55;;;;;;;13.27;6.22;;;10.00;99.90;;;;;;4917035;29;20068;-77
2022/10/08 06:16:21;;;;;;;16.88;6.47;;;10.10;99.90;;;;;;4939650;29;20048;-77
2022/10/08 06:18:47;;;;;;;13.18;6.07;;;10.10;99.90;;;;;;4924959;29;20442;-77
2022/10/08 06:21:16;;;;;;;13.52;5.72;;;10.10;99.90;;;;;;4933046;29;20406;-79
2022/10/08 06:23:47;;;;;;;18.60;6.72;;;10.10;99.90;;;;;;4928941;29;20044;-77
2022/10/08 06:26:14;;;;;;;13.32;6.25;;;10.00;99.90;;;;;;4912890;29;20495;-76
2022/10/08 06:28:39;;;;;;;13.90;6.30;;;10.00;99.90;;;;;;4930359;29;20074;-77
2022/10/08 06:31:06;;;;;;;16.25;6.32;;;10.10;99.90;;;;;;4967950;28;20470;-77
2022/10/08 06:33:33;;;;;;;17.35;6.40;;;10.10;99.90;;;;;;4936043;29;20440;-77
2022/10/08 06:36:17;;;;;;;13.45;6.57;;;10.10;99.90;;;;;;4920120;29;20062;-77
2022/10/08 06:38:47;;;;;;;13.73;6.65;;;10.10;99.90;;;;;;4919965;29;20043;-77
2022/10/08 06:41:12;;;;;;;16.88;7.22;;;10.10;99.90;;;;;;4936371;29;20043;-77
2022/10/08 06:43:38;;;;;;;17.90;7.10;;;10.20;99.90;;;;;;4947285;29;20036;-77
2022/10/08 06:46:05;;;;;;;16.48;6.78;;;10.30;99.90;;;;;;4928528;29;20040;-77
2022/10/08 06:48:31;;;;;;;27.13;7.63;;;10.40;99.90;;;;;;4923980;29;21487;-77
2022/10/08 06:51:05;;;;;;;13.38;6.47;;;10.40;99.90;;;;;;4957250;28;20076;-77
2022/10/08 06:53:31;;;;;;;21.17;6.70;;;10.40;99.90;;;;;;4922454;29;20032;-77
2022/10/08 06:56:09;;;;;;;20.65;6.03;;;10.40;99.90;;;;;;4943343;29;20040;-78
2022/10/08 06:58:36;;;;;;;16.63;6.70;;;10.40;99.90;;;;;;4913450;29;20094;-77
2022/10/08 07:01:05;;;;;;;13.05;5.35;;;10.40;99.90;;;;;;4916797;29;20173;-77
2022/10/08 07:03:30;;;;;;;14.55;5.70;;;10.40;99.90;;;;;;4964528;28;20082;-77
2022/10/08 07:06:00;;;;;;;15.32;5.65;;;10.40;99.90;;;;;;4951543;29;20134;-77
2022/10/08 07:08:26;;;;;;;18.50;5.63;;;10.40;99.90;;;;;;4929991;29;20233;-77
2022/10/08 07:10:53;;;;;;;17.63;6.55;;;10.50;99.90;;;;;;4918023;29;20743;-77
2022/10/08 07:13:18;;;;;;;13.15;5.82;;;10.50;99.90;;;;;;4917129;29;20067;-77
2022/10/08 07:15:44;;;;;;;15.88;5.88;;;10.60;99.90;;;;;;4938972;29;20067;-77
2022/10/08 07:18:11;;;;;;;15.55;5.47;;;10.70;99.90;;;;;;4921210;29;20055;-76
2022/10/08 07:20:37;;;;;;;13.02;5.07;;;10.80;99.90;;;;;;4956240;28;20063;-76
2022/10/08 07:23:03;;;;;;;15.40;4.90;;;10.80;99.90;;;;;;4954369;28;20035;-76
2022/10/08 07:25:28;;;;;;;13.75;4.65;;;10.80;99.90;;;;;;4932718;29;20118;-77
2022/10/08 07:27:54;;;;;;;13.70;4.10;;;10.90;99.90;;;;;;4926377;29;20040;-76
2022/10/08 07:30:20;;;;;;;10.70;3.47;;;11.00;99.90;;;;;;4932462;29;20571;-77
2022/10/08 07:32:45;;;;;;;10.63;3.92;;;11.00;99.90;;;;;;4945903;29;20044;-77
2022/10/08 07:35:11;;;;;;;10.13;3.17;;;11.00;99.90;;;;;;4918757;29;20047;-76
2022/10/08 07:37:41;;;;;;;8.10;3.20;;;10.90;99.90;;;;;;4930120;29;20095;-76
2022/10/08 07:40:07;;;;;;;8.70;3.40;;;10.90;99.90;;;;;;4935563;29;20035;-78
2022/10/08 07:42:32;;;;;;;13.15;3.42;;;10.90;99.90;;;;;;4950338;28;20433;-79
2022/10/08 07:45:01;;;;;;;16.40;3.35;;;11.00;99.90;;;;;;4931236;29;20042;-78
2022/10/08 07:47:26;;;;;;;11.00;2.80;;;10.90;99.90;;;;;;4940369;29;20071;-79
2022/10/08 07:49:52;;;;;;;5.47;2.47;;;11.00;99.90;;;;;;4950686;29;20042;-78
2022/10/08 07:52:18;;;;;;;8.60;2.65;;;11.00;99.90;;;;;;4934375;29;20048;-78
2022/10/08 07:54:44;;;;;;;8.35;2.70;;;11.00;99.90;;;;;;4955978;29;20044;-78
2022/10/08 07:57:10;;;;;;;6.53;2.63;;;11.00;99.90;;;;;;4940853;29;20036;-78
2022/10/08 07:59:36;;;;;;;10.57;2.83;;;11.00;99.90;;;;;;4920543;29;20048;-78
2022/10/08 08:02:02;;;;;;;7.47;2.20;;;11.10;99.90;;;;;;4936250;29;20036;-78
2022/10/08 08:04:27;;;;;;;10.40;2.38;;;11.10;99.90;;;;;;4935836;29;20054;-77
2022/10/08 08:06:53;;;;;;;9.20;2.50;;;11.10;99.90;;;;;;4927069;29;20091;-77
2022/10/08 08:09:19;;;;;;;9.77;3.00;;;11.20;99.90;;;;;;4926305;29;20190;-78
2022/10/08 08:11:47;;;;;;;7.00;2.22;;;11.20;99.90;;;;;;4956548;28;20042;-77
2022/10/08 08:14:12;;;;;;;8.65;2.17;;;11.20;99.90;;;;;;4952171;28;20130;-77
2022/10/08 08:16:39;;;;;;;8.13;2.03;;;11.30;99.90;;;;;;4948166;28;20625;-77
2022/10/08 08:19:05;;;;;;;7.03;2.00;;;11.30;99.90;;;;;;4934553;29;20047;-77
2022/10/08 08:21:36;;;;;;;7.50;1.98;;;11.40;99.90;;;;;;4938955;29;20076;-77
2022/10/08 08:24:05;;;;;;;6.32;1.98;;;11.40;99.90;;;;;;4926924;29;20039;-78
2022/10/08 08:26:34;;;;;;;9.43;2.00;;;11.50;99.90;;;;;;4949057;29;20039;-78
2022/10/08 08:29:03;;;;;;;7.40;2.35;;;11.50;99.90;;;;;;4948063;29;20106;-75
2022/10/08 08:31:32;;;;;;;7.18;1.55;;;11.50;99.90;;;;;;4942220;29;20122;-80
2022/10/08 08:34:04;;;;;;;7.10;2.00;;;11.60;99.90;;;;;;4942725;29;20050;-78
2022/10/08 08:36:33;;;;;;;7.00;1.70;;;11.60;99.90;;;;;;4915022;29;20319;-77
2022/10/08 08:38:59;;;;;;;5.60;1.50;;;11.70;99.90;;;;;;4912124;29;20083;-77
2022/10/08 08:41:56;;;;;;;6.63;1.45;;;11.70;99.90;;;;;;4926569;29;20100;-76
2022/10/08 08:44:26;;;;;;;5.30;1.20;;;11.80;99.90;;;;;;4917991;29;20046;-76
2022/10/08 08:47:00;;;;;;;6.40;1.45;;;11.80;99.90;;;;;;4922095;29;20043;-77
2022/10/08 08:49:27;;;;;;;11.68;1.83;;;11.90;99.90;;;;;;4933823;29;20071;-77
2022/10/08 08:51:54;;;;;;;6.25;1.02;;;11.90;99.90;;;;;;4915937;29;20459;-76
2022/10/08 08:54:21;;;;;;;5.57;1.27;;;12.10;99.90;;;;;;4917815;29;20491;-76
2022/10/08 08:56:48;;;;;;;7.95;1.30;;;12.20;99.90;;;;;;4929277;29;20044;-76
2022/10/08 08:59:32;;;;;;;5.38;1.08;;;12.20;99.90;;;;;;4916679;29;20407;-76
2022/10/08 09:02:04;;;;;;;4.28;1.15;;;12.30;99.90;;;;;;4949629;29;20043;-76
2022/10/08 09:04:38;;;;;;;3.95;0.90;;;12.20;99.90;;;;;;4949478;29;20126;-75
2022/10/08 09:07:10;;;;;;;4.07;1.20;;;12.20;99.90;;;;;;4950873;28;20524;-75
2022/10/08 09:09:41;;;;;;;4.38;1.13;;;12.30;99.90;;;;;;4937438;29;20051;-78
2022/10/08 09:12:35;;;;;;;4.13;0.90;;;12.30;99.90;;;;;;4931995;29;20043;-77
2022/10/08 09:15:02;;;;;;;4.65;0.85;;;12.40;99.90;;;;;;4933510;29;20083;-76
2022/10/08 09:17:39;;;;;;;5.80;1.00;;;12.50;99.90;;;;;;4967612;28;20082;-78
2022/10/08 09:20:05;;;;;;;6.07;0.98;;;12.70;99.90;;;;;;4923255;29;20403;-76
2022/10/08 09:22:39;;;;;;;4.28;1.05;;;12.80;99.90;;;;;;4916704;29;20047;-77
2022/10/08 09:25:06;;;;;;;5.38;1.13;;;13.00;99.90;;;;;;4957328;28;20123;-77
2022/10/08 09:27:55;;;;;;;3.63;0.82;;;13.10;99.90;;;;;;4931829;29;20134;-76
2022/10/08 09:30:40;;;;;;;4.70;1.02;;;13.30;99.90;;;;;;4933750;29;20042;-76
2022/10/08 09:33:11;;;;;;;9.55;1.70;;;13.50;99.90;;;;;;4936109;29;20036;-77
2022/10/08 09:35:44;;;;;;;6.97;1.13;;;13.70;99.90;;;;;;4927073;29;20042;-77
2022/10/08 09:38:26;;;;;;;;;;;13.90;99.90;;;;;;4940488;29;20101;-77
2022/10/08 09:41:06;;;;;;;4.45;0.65;;;14.00;99.90;;;;;;4941965;29;20361;-77
2022/10/08 09:43:33;;;;;;;7.45;1.05;;;13.90;99.90;;;;;;4921704;29;20418;-75
2022/10/08 09:46:03;;;;;;;4.22;0.65;;;13.80;99.90;;;;;;4965658;28;20050;-76
2022/10/08 09:48:30;;;;;;;3.95;0.80;;;13.80;99.90;;;;;;4913424;29;20048;-75
2022/10/08 09:51:25;;;;;;;5.28;0.82;;;13.80;99.90;;;;;;4916476;29;20530;-76
2022/10/08 09:53:57;;;;;;;2.88;0.70;;;14.00;99.90;;;;;;4933686;29;20051;-76
2022/10/08 09:56:26;;;;;;;3.80;0.80;;;14.10;99.90;;;;;;4952211;29;20043;-76
2022/10/08 09:58:54;;;;;;;6.03;1.02;;;14.30;99.90;;;;;;4951989;29;20049;-76
2022/10/08 10:01:20;;;;;;;7.47;1.08;;;14.60;99.90;;;;;;4941246;29;20451;-77
2022/10/08 10:03:58;;;;;;;6.57;1.13;;;14.90;99.90;;;;;;4931673;29;20498;-76
2022/10/08 10:06:36;;;;;;;4.45;0.93;;;15.30;99.90;;;;;;4927699;29;20054;-77
2022/10/08 10:09:22;;;;;;;2.75;0.70;;;15.60;99.90;;;;;;4924539;29;20047;-77
2022/10/08 10:11:53;;;;;;;3.83;0.70;;;15.80;99.90;;;;;;4929855;29;20036;-77
2022/10/08 10:14:39;;;;;;;7.38;0.80;;;15.80;99.90;;;;;;4935599;29;20056;-77
2022/10/08 10:17:13;;;;;;;5.22;0.95;;;15.80;99.90;;;;;;4955775;28;20490;-78
2022/10/08 10:19:48;;;;;;;3.58;0.63;;;15.80;99.90;;;;;;4942574;29;20068;-76
2022/10/08 10:22:20;;;;;;;5.28;0.85;;;15.80;99.90;;;;;;4928559;29;20172;-77
2022/10/08 10:24:52;;;;;;;4.40;0.80;;;15.60;99.90;;;;;;4922322;29;20078;-78
2022/10/08 10:27:39;;;;;;;7.43;1.35;;;15.50;99.90;;;;;;4928507;29;20126;-77
2022/10/08 10:30:19;;;;;;;2.85;0.68;;;15.10;99.90;;;;;;4934960;29;20526;-77
2022/10/08 10:32:53;;;;;;;3.03;0.68;;;14.60;99.90;;;;;;4971677;28;20043;-76
2022/10/08 10:35:27;;;;;;;4.57;0.75;;;14.10;99.90;;;;;;4933439;29;20042;-76
2022/10/08 10:38:14;;;;;;;5.15;1.00;;;13.80;99.90;;;;;;4935123;29;20043;-76
2022/10/08 10:41:02;;;;;;;6.93;1.02;;;13.70;99.90;;;;;;4919962;29;20067;-76
2022/10/08 10:43:56;;;;;;;6.68;1.20;;;14.00;99.90;;;;;;4900643;29;20094;-76
2022/10/08 10:46:32;;;;;;;5.40;1.10;;;14.40;99.90;;;;;;4938849;29;20123;-76
2022/10/08 10:48:58;;;;;;;4.18;0.90;;;14.30;99.90;;;;;;4944869;29;20051;-75
2022/10/08 10:51:48;;;;;;;4.97;1.85;;;14.10;99.90;;;;;;4954977;29;20090;-76
2022/10/08 10:54:23;;;;;;;4.72;0.93;;;14.00;99.90;;;;;;4932156;29;20127;-76
2022/10/08 10:56:56;;;;;;;5.45;0.90;;;13.90;99.90;;;;;;4965239;28;20043;-76
2022/10/08 10:59:44;;;;;;;4.65;0.90;;;13.70;99.90;;;;;;4935486;29;20051;-76
2022/10/08 11:02:19;;;;;;;3.72;1.10;;;13.70;99.90;;;;;;4935583;29;20051;-76
2022/10/08 11:05:10;;;;;;;4.22;0.80;;;13.50;99.90;;;;;;4922472;29;20043;-76
2022/10/08 11:08:16;;;;;;;6.50;1.42;;;13.50;99.90;;;;;;4915551;29;20072;-77
2022/10/08 11:11:16;;;;;;;4.40;1.17;;;13.80;99.90;;;;;;4967524;28;20035;-76
2022/10/08 11:14:05;;;;;;;3.30;0.70;;;14.10;99.90;;;;;;4951723;28;20078;-76
2022/10/08 11:17:13;;;;;;;5.03;0.80;;;14.60;99.90;;;;;;4926011;29;20035;-76
2022/10/08 11:19:41;;;;;;;5.25;1.27;;;14.90;99.90;;;;;;4935182;29;20051;-76
2022/10/08 11:22:29;;;;;;;5.22;0.95;;;15.30;99.90;;;;;;4935157;29;20051;-76
2022/10/08 11:25:01;;;;;;;3.38;0.90;;;15.50;99.90;;;;;;4919124;29;20079;-77
2022/10/08 11:27:51;;;;;;;5.13;0.98;;;15.30;99.90;;;;;;4933087;29;20050;-77
2022/10/08 11:30:21;;;;;;;3.80;0.98;;;15.30;99.90;;;;;;4932409;29;20447;-77
2022/10/08 11:32:55;;;;;;;5.35;0.80;;;15.30;99.90;;;;;;4958794;28;20418;-77
2022/10/08 11:35:37;;;;;;;2.92;0.50;;;15.30;99.90;;;;;;4934817;29;20562;-77
2022/10/08 11:38:13;;;;;;;5.28;0.90;;;15.20;99.90;;;;;;4934868;29;20463;-77
2022/10/08 11:41:00;;;;;;;2.75;0.70;;;15.40;99.90;;;;;;4929108;29;20040;-77
2022/10/08 11:43:37;;;;;;;5.93;0.68;;;15.70;99.90;;;;;;4936496;29;20046;-77
2022/10/08 11:46:28;;;;;;;3.33;0.80;;;16.00;99.90;;;;;;4946104;29;20498;-76
2022/10/08 11:48:59;;;;;;;5.00;0.88;;;15.90;99.90;;;;;;4946392;29;20086;-78
2022/10/08 11:51:25;;;;;;;5.43;0.93;;;16.00;99.90;;;;;;4929422;29;20040;-78
2022/10/08 11:54:30;;;;;;;4.18;0.70;;;15.90;99.90;;;;;;4952203;28;20101;-77
2022/10/08 11:57:16;;;;;;;3.28;0.82;;;15.80;99.90;;;;;;4960859;28;20451;-77
2022/10/08 11:59:54;;;;;;;5.80;1.50;;;15.70;99.90;;;;;;4931953;29;20080;-77
2022/10/08 12:02:29;;;;;;;6.03;0.75;;;15.80;99.90;;;;;;4936481;29;20032;-77
2022/10/08 12:04:58;;;;;;;3.97;0.57;;;15.90;99.90;;;;;;4951327;28;20046;-77
2022/10/08 12:07:36;;;;;;;6.00;1.00;;;16.10;99.90;;;;;;4939069;29;20042;-77
2022/10/08 12:10:24;;;;;;;4.63;1.40;;;15.90;99.90;;;;;;4935028;29;20662;-76
2022/10/08 12:12:49;;;;;;;2.33;0.50;;;15.60;99.90;;;;;;4928625;29;20036;-76
2022/10/08 12:15:26;;;;;;;3.78;0.63;;;15.20;99.90;;;;;;4919797;29;20044;-77
2022/10/08 12:17:57;;;;;;;4.50;1.10;;;14.80;99.90;;;;;;4933197;29;20426;-76
2022/10/08 12:20:24;;;;;;;4.47;0.88;;;14.60;99.90;;;;;;4968789;28;20039;-77
2022/10/08 12:23:18;;;;;;;4.07;0.70;;;14.30;99.90;;;;;;4930281;29;20040;-76
2022/10/08 12:25:44;;;;;;;7.45;1.42;;;14.40;99.90;;;;;;4932137;29;20043;-76
2022/10/08 12:28:18;;;;;;;4.63;0.95;;;14.60;99.90;;;;;;4932452;29;20826;-77
2022/10/08 12:30:49;;;;;;;3.33;0.70;;;14.90;99.90;;;;;;4943409;29;20399;-76
2022/10/08 12:33:16;;;;;;;4.70;0.80;;;15.20;99.90;;;;;;4915285;29;20499;-76
2022/10/08 12:36:00;;;;;;;6.38;0.80;;;15.40;99.90;;;;;;4954455;28;20126;-77
2022/10/08 12:38:37;;;;;;;3.85;0.95;;;15.40;99.90;;;;;;4917628;29;20047;-77
2022/10/08 12:41:26;;;;;;;4.70;1.02;;;15.40;99.90;;;;;;4933712;29;20047;-77
2022/10/08 12:44:02;;;;;;;3.65;1.00;;;15.50;99.90;;;;;;4933975;29;20043;-76
2022/10/08 12:46:52;;;;;;;4.55;1.20;;;15.60;99.90;;;;;;4930379;29;20232;-76
2022/10/08 12:49:28;;;;;;;5.47;1.02;;;15.60;99.90;;;;;;4929736;29;20047;-76
2022/10/08 12:52:13;;;;;;;5.18;1.05;;;15.70;99.90;;;;;;4949408;29;20055;-76
2022/10/08 12:54:51;;;;;;;3.38;0.90;;;16.00;99.90;;;;;;4931265;29;20051;-78
2022/10/08 12:57:28;;;;;;;5.15;0.95;;;16.20;99.90;;;;;;4936911;29;20039;-78
2022/10/08 12:59:56;;;;;;;3.35;0.88;;;16.50;99.90;;;;;;4938917;29;20058;-77
2022/10/08 13:02:42;;;;;;;2.95;0.75;;;16.80;99.90;;;;;;4932877;29;20040;-78
2022/10/08 13:05:32;;;;;;;4.82;0.63;;;16.90;99.90;;;;;;4929562;29;20036;-77
2022/10/08 13:08:16;;;;;;;5.03;0.60;;;17.10;99.90;;;;;;4933477;29;20546;-78
2022/10/08 13:10:42;;;;;;;4.00;0.80;;;17.20;99.90;;;;;;4930021;29;20540;-78